createdAt,value
2019-04-30T00:00:30.430Z,9.40
2019-04-30T00:03:06.587Z,9.40
2019-04-30T00:05:35.275Z,9.40
2019-04-30T00:08:05.839Z,9.30
2019-04-30T00:10:39.567Z,9.40
2019-04-30T00:13:10.543Z,9.30
2019-04-30T00:15:37.957Z,9.40
2019-04-30T00:18:08.517Z,9.40
2019-04-30T00:20:38.725Z,9.40
2019-04-30T00:23:09.127Z,9.30
2019-04-30T00:25:38.544Z,9.30
2019-04-30T00:28:08.848Z,9.20
2019-04-30T00:30:43.894Z,9.20
2019-04-30T00:33:15.206Z,9.20
2019-04-30T00:35:45.369Z,9.20
2019-04-30T00:38:15.941Z,9.20
2019-04-30T00:40:45.174Z,9.20
2019-04-30T00:43:15.448Z,9.10
2019-04-30T00:46:05.026Z,9.00
2019-04-30T00:48:36.463Z,9.00
2019-04-30T00:51:07.573Z,9.00
2019-04-30T00:53:36.070Z,8.90
2019-04-30T00:56:05.682Z,8.90
2019-04-30T00:58:35.704Z,8.90
2019-04-30T01:01:25.624Z,8.90
2019-04-30T01:04:05.126Z,9.00
2019-04-30T01:06:35.684Z,8.90
2019-04-30T01:09:08.410Z,8.90
2019-04-30T01:11:35.587Z,8.90
2019-04-30T01:14:05.088Z,8.90
2019-04-30T01:16:34.125Z,8.80
2019-04-30T01:19:05.762Z,8.70
2019-04-30T01:21:33.751Z,8.50
2019-04-30T01:24:03.901Z,8.50
2019-04-30T01:26:32.712Z,8.50
2019-04-30T01:29:03.710Z,8.50
2019-04-30T01:31:37.391Z,8.50
2019-04-30T01:34:05.235Z,8.50
2019-04-30T01:36:33.805Z,8.50
2019-04-30T01:39:02.827Z,8.40
2019-04-30T01:41:31.761Z,8.40
2019-04-30T01:44:03.799Z,8.40
2019-04-30T01:46:33.923Z,8.40
2019-04-30T01:49:05.574Z,8.40
2019-04-30T01:51:34.490Z,8.40
2019-04-30T01:54:03.558Z,8.30
2019-04-30T01:56:40.303Z,8.20
2019-04-30T01:59:19.073Z,8.10
2019-04-30T02:01:49.984Z,8.00
2019-04-30T02:04:19.614Z,7.90
2019-04-30T02:06:49.334Z,7.80
2019-04-30T02:09:20.684Z,7.80
2019-04-30T02:11:49.572Z,7.70
2019-04-30T02:14:18.974Z,7.60
2019-04-30T02:16:49.837Z,7.60
2019-04-30T02:19:19.240Z,7.50
2019-04-30T02:21:48.662Z,7.50
2019-04-30T02:24:19.218Z,7.40
2019-04-30T02:26:48.508Z,7.40
2019-04-30T02:29:19.145Z,7.30
2019-04-30T02:31:51.280Z,7.10
2019-04-30T02:34:22.337Z,7.00
2019-04-30T02:36:52.852Z,6.80
2019-04-30T02:39:21.958Z,6.80
2019-04-30T02:41:52.883Z,6.60
2019-04-30T02:44:21.993Z,6.50
2019-04-30T02:46:51.069Z,6.40
2019-04-30T02:49:20.550Z,6.40
2019-04-30T02:51:50.239Z,6.40
2019-04-30T02:54:23.959Z,6.30
2019-04-30T02:56:54.669Z,6.30
2019-04-30T02:59:23.766Z,6.20
2019-04-30T03:01:53.461Z,6.10
2019-04-30T03:04:22.624Z,6.10
2019-04-30T03:06:52.163Z,6.10
2019-04-30T03:09:21.215Z,5.80
2019-04-30T03:11:51.451Z,5.80
2019-04-30T03:14:20.520Z,5.70
2019-04-30T03:17:00.384Z,5.60
2019-04-30T03:19:31.177Z,5.60
2019-04-30T03:22:20.248Z,5.40
2019-04-30T03:24:50.071Z,5.30
2019-04-30T03:27:21.090Z,5.30
2019-04-30T03:29:52.231Z,5.20
2019-04-30T03:32:22.659Z,5.10
2019-04-30T03:34:52.814Z,5.00
2019-04-30T03:37:22.789Z,5.10
2019-04-30T03:39:51.889Z,5.00
2019-04-30T03:42:20.841Z,5.00
2019-04-30T03:44:49.919Z,5.00
2019-04-30T03:47:20.200Z,4.90
2019-04-30T03:49:49.872Z,4.90
2019-04-30T03:52:19.664Z,4.70
2019-04-30T03:54:49.566Z,4.70
2019-04-30T03:57:20.943Z,4.60
2019-04-30T03:59:50.172Z,4.40
2019-04-30T04:02:36.661Z,4.30
2019-04-30T04:05:23.500Z,4.30
2019-04-30T04:08:04.372Z,4.20
2019-04-30T04:10:34.887Z,4.30
2019-04-30T04:13:03.653Z,4.30
2019-04-30T04:15:34.222Z,4.30
2019-04-30T04:18:04.612Z,4.40
2019-04-30T04:20:34.247Z,4.50
2019-04-30T04:23:03.075Z,4.40
2019-04-30T04:25:32.437Z,4.50
2019-04-30T04:28:01.477Z,4.50
2019-04-30T04:30:30.528Z,4.60
2019-04-30T04:32:59.880Z,4.70
2019-04-30T04:35:29.820Z,4.70
2019-04-30T04:38:00.407Z,4.80
2019-04-30T04:40:30.258Z,4.80
2019-04-30T04:43:00.344Z,4.80
2019-04-30T04:45:30.506Z,4.80
2019-04-30T04:48:29.975Z,4.70
2019-04-30T04:51:00.705Z,4.80
2019-04-30T04:53:30.429Z,4.80
2019-04-30T04:56:00.002Z,4.90
2019-04-30T04:58:30.633Z,5.00
2019-04-30T05:00:59.836Z,5.10
2019-04-30T05:03:30.302Z,5.10
2019-04-30T05:06:02.270Z,5.20
2019-04-30T05:08:31.346Z,5.30
2019-04-30T05:11:02.257Z,5.40
2019-04-30T05:13:34.642Z,5.70
2019-04-30T05:16:03.094Z,5.90
2019-04-30T05:18:32.055Z,6.10
2019-04-30T05:21:02.216Z,6.20
2019-04-30T05:23:31.199Z,6.50
2019-04-30T05:26:00.254Z,6.80
2019-04-30T05:28:30.157Z,7.00
2019-04-30T05:31:00.366Z,7.20
2019-04-30T05:33:29.929Z,7.40
2019-04-30T05:35:59.432Z,7.60
2019-04-30T05:38:34.741Z,8.00
2019-04-30T05:41:03.550Z,8.10
2019-04-30T05:43:32.437Z,8.30
2019-04-30T05:46:01.428Z,8.50
2019-04-30T05:48:30.851Z,8.80
2019-04-30T05:51:21.148Z,8.80
2019-04-30T05:53:50.307Z,9.00
2019-04-30T05:56:19.375Z,9.10
2019-04-30T05:58:49.430Z,9.30
2019-04-30T06:01:19.615Z,9.40
2019-04-30T06:03:49.196Z,9.50
2019-04-30T06:06:19.327Z,9.60
2019-04-30T06:08:50.296Z,9.50
2019-04-30T06:11:20.910Z,9.50
2019-04-30T06:13:54.254Z,9.50
2019-04-30T06:16:24.732Z,9.60
2019-04-30T06:18:53.680Z,9.70
2019-04-30T06:21:22.927Z,9.60
2019-04-30T06:23:51.970Z,9.70
2019-04-30T06:26:22.054Z,9.90
2019-04-30T06:28:51.007Z,10.10
2019-04-30T06:31:31.848Z,10.30
2019-04-30T06:33:51.188Z,10.30
2019-04-30T06:36:20.661Z,10.40
2019-04-30T06:38:49.606Z,10.50
2019-04-30T06:41:19.798Z,10.70
2019-04-30T06:43:52.071Z,10.80
2019-04-30T06:46:21.051Z,10.90
2019-04-30T06:48:51.015Z,11.00
2019-04-30T06:51:20.971Z,10.80
2019-04-30T06:53:51.394Z,10.90
2019-04-30T06:56:21.480Z,10.90
2019-04-30T06:58:52.678Z,11.00
2019-04-30T07:01:23.152Z,11.20
2019-04-30T07:03:53.388Z,11.50
2019-04-30T07:06:29.614Z,11.70
2019-04-30T07:08:59.653Z,11.80
2019-04-30T07:11:31.636Z,11.70
2019-04-30T07:14:00.518Z,11.90
2019-04-30T07:16:29.954Z,12.30
2019-04-30T07:18:59.110Z,12.30
2019-04-30T07:21:31.612Z,12.40
2019-04-30T07:24:02.239Z,12.50
2019-04-30T07:26:31.146Z,12.60
2019-04-30T07:29:02.517Z,12.50
2019-04-30T07:31:30.555Z,12.20
2019-04-30T07:33:59.657Z,12.30
2019-04-30T07:36:43.389Z,12.30
2019-04-30T07:38:59.862Z,12.30
2019-04-30T07:41:30.888Z,12.30
2019-04-30T07:44:02.288Z,12.20
2019-04-30T07:46:35.328Z,12.40
2019-04-30T07:49:02.252Z,12.70
2019-04-30T07:51:37.125Z,12.40
2019-04-30T07:54:01.784Z,12.60
2019-04-30T07:56:37.532Z,12.90
2019-04-30T07:59:02.905Z,13.30
2019-04-30T08:01:34.481Z,13.70
2019-04-30T08:04:05.013Z,14.10
2019-04-30T08:06:35.664Z,14.40
2019-04-30T08:09:10.127Z,14.40
2019-04-30T08:11:43.447Z,14.60
2019-04-30T08:14:11.391Z,14.00
2019-04-30T08:16:40.347Z,14.30
2019-04-30T08:19:09.252Z,14.40
2019-04-30T08:21:38.737Z,14.20
2019-04-30T08:24:29.082Z,13.40
2019-04-30T08:26:59.080Z,13.60
2019-04-30T08:29:29.468Z,14.00
2019-04-30T08:31:59.373Z,14.10
2019-04-30T08:34:29.845Z,14.00
2019-04-30T08:36:59.428Z,13.50
2019-04-30T08:39:29.453Z,14.00
2019-04-30T08:42:00.000Z,14.60
2019-04-30T08:44:29.718Z,14.90
2019-04-30T08:47:01.698Z,15.30
2019-04-30T08:49:31.113Z,14.70
2019-04-30T08:52:01.775Z,14.30
2019-04-30T08:54:30.890Z,14.70
2019-04-30T08:56:59.723Z,14.80
2019-04-30T08:59:29.420Z,15.10
2019-04-30T09:02:00.014Z,15.50
2019-04-30T09:04:29.845Z,15.90
2019-04-30T09:06:59.977Z,15.20
2019-04-30T09:09:29.583Z,14.70
2019-04-30T09:11:59.161Z,15.10
2019-04-30T09:14:30.791Z,15.40
2019-04-30T09:16:59.691Z,15.30
2019-04-30T09:19:30.133Z,16.00
2019-04-30T09:21:59.137Z,16.50
2019-04-30T09:24:30.708Z,16.90
2019-04-30T09:26:59.083Z,17.20
2019-04-30T09:29:29.315Z,17.00
2019-04-30T09:31:59.454Z,16.70
2019-04-30T09:34:29.067Z,16.70
2019-04-30T09:36:59.940Z,17.00
2019-04-30T09:39:29.754Z,17.10
2019-04-30T09:41:59.691Z,17.60
2019-04-30T09:44:30.887Z,17.70
2019-04-30T09:46:59.861Z,17.90
2019-04-30T09:49:30.281Z,17.70
2019-04-30T09:52:00.522Z,17.80
2019-04-30T09:54:29.939Z,18.10
2019-04-30T09:57:00.470Z,18.40
2019-04-30T09:59:29.330Z,17.70
2019-04-30T10:01:58.145Z,17.70
2019-04-30T10:04:27.834Z,18.30
2019-04-30T10:06:59.535Z,18.70
2019-04-30T10:09:30.952Z,19.30
2019-04-30T10:12:09.436Z,19.70
2019-04-30T10:14:40.802Z,19.80
2019-04-30T10:17:21.260Z,20.00
2019-04-30T10:19:51.457Z,20.20
2019-04-30T10:22:21.858Z,20.10
2019-04-30T10:24:51.466Z,20.40
2019-04-30T10:27:20.402Z,20.60
2019-04-30T10:29:49.437Z,21.20
2019-04-30T10:32:18.770Z,21.50
2019-04-30T10:34:47.885Z,22.20
2019-04-30T10:37:18.756Z,22.60
2019-04-30T10:39:48.989Z,23.00
2019-04-30T10:42:17.882Z,23.40
2019-04-30T10:44:46.877Z,23.70
2019-04-30T10:47:16.073Z,23.60
2019-04-30T10:49:45.131Z,22.90
2019-04-30T10:52:14.269Z,23.30
2019-04-30T10:54:43.206Z,23.40
2019-04-30T10:57:12.118Z,23.80
2019-04-30T10:59:41.034Z,24.00
2019-04-30T11:02:10.036Z,23.40
2019-04-30T11:04:39.654Z,24.10
2019-04-30T11:07:09.299Z,24.00
2019-04-30T11:09:39.503Z,24.20
2019-04-30T11:12:09.465Z,24.60
2019-04-30T11:14:38.616Z,24.80
2019-04-30T11:17:09.574Z,25.20
2019-04-30T11:19:39.093Z,25.30
2019-04-30T11:22:08.364Z,25.10
2019-04-30T11:24:53.419Z,25.20
2019-04-30T11:27:11.225Z,25.50
2019-04-30T11:29:40.023Z,25.80
2019-04-30T11:32:11.354Z,25.70
2019-04-30T11:34:40.613Z,23.10
2019-04-30T11:37:09.644Z,23.20
2019-04-30T11:39:39.229Z,23.50
2019-04-30T11:42:08.261Z,23.10
2019-04-30T11:44:38.699Z,23.30
2019-04-30T11:47:13.751Z,23.60
2019-04-30T11:49:42.784Z,25.70
2019-04-30T11:52:11.671Z,25.70
2019-04-30T11:54:51.583Z,26.10
2019-04-30T11:57:14.398Z,26.40
2019-04-30T11:59:45.058Z,24.60
2019-04-30T12:02:15.735Z,23.70
2019-04-30T12:04:45.127Z,24.40
2019-04-30T12:07:21.809Z,25.20
2019-04-30T12:10:04.781Z,24.20
2019-04-30T12:12:33.624Z,22.90
2019-04-30T12:15:02.896Z,23.70
2019-04-30T12:17:32.226Z,25.30
2019-04-30T12:20:01.267Z,26.40
2019-04-30T12:22:32.205Z,27.10
2019-04-30T12:25:03.233Z,27.80
2019-04-30T12:27:31.819Z,28.60
2019-04-30T12:30:02.019Z,29.20
2019-04-30T12:32:30.950Z,28.30
2019-04-30T12:35:01.203Z,28.20
2019-04-30T17:42:34.253Z,15.50
2019-04-30T17:45:02.703Z,15.50
2019-04-30T17:47:31.129Z,15.60
2019-04-30T17:49:59.609Z,15.40
2019-04-30T17:52:29.843Z,15.50
2019-04-30T17:54:59.488Z,15.50
2019-04-30T17:57:33.874Z,15.60
2019-04-30T17:59:59.290Z,15.50
2019-04-30T18:02:29.430Z,15.50
2019-04-30T18:04:57.810Z,15.40
2019-04-30T18:07:26.609Z,15.30
2019-04-30T18:09:55.128Z,15.20
2019-04-30T18:12:23.595Z,15.10
2019-04-30T18:14:52.121Z,15.00
2019-04-30T18:17:21.729Z,14.90
2019-04-30T18:19:54.577Z,14.70
2019-04-30T18:22:24.642Z,14.70
2019-04-30T18:24:59.176Z,14.60
2019-04-30T18:27:43.083Z,14.50
2019-04-30T18:30:02.626Z,14.30
2019-04-30T18:32:31.056Z,14.10
2019-04-30T18:34:59.502Z,14.00
2019-04-30T18:37:28.713Z,13.70
2019-04-30T18:40:00.024Z,13.60
2019-04-30T18:42:29.104Z,13.40
2019-04-30T18:44:57.459Z,13.20
2019-04-30T18:47:26.165Z,13.00
2019-04-30T18:49:54.596Z,12.90
2019-04-30T18:52:23.074Z,12.70
2019-04-30T18:54:51.572Z,12.50
2019-04-30T18:57:20.142Z,12.40
2019-04-30T18:59:48.529Z,12.30
2019-04-30T19:02:16.998Z,12.10
2019-04-30T19:04:45.440Z,11.90
2019-04-30T19:07:24.487Z,11.80
2019-04-30T19:10:00.633Z,11.70
2019-04-30T19:12:42.808Z,11.80
2019-04-30T19:15:41.304Z,11.70
2019-04-30T19:18:06.626Z,11.70
2019-04-30T19:20:38.469Z,11.60
2019-04-30T19:23:09.959Z,11.50
2019-04-30T19:25:38.641Z,11.40
2019-04-30T19:28:12.224Z,11.40
2019-04-30T19:30:38.893Z,11.20
2019-04-30T19:33:08.697Z,11.20
2019-04-30T19:35:37.291Z,11.10
2019-04-30T19:38:05.757Z,11.00
2019-04-30T19:40:34.577Z,11.00
2019-04-30T19:43:03.063Z,11.00
2019-04-30T19:45:31.469Z,11.00
2019-04-30T19:47:59.943Z,10.90
2019-04-30T19:50:28.386Z,10.90
2019-04-30T19:52:58.609Z,10.80
2019-04-30T19:55:28.611Z,10.60
2019-04-30T19:57:59.700Z,10.40
2019-04-30T20:00:29.113Z,10.30
2019-04-30T20:02:59.954Z,10.20
2019-04-30T20:05:28.655Z,10.10
2019-04-30T20:07:59.095Z,10.10
2019-04-30T20:10:28.763Z,10.10
2019-04-30T20:12:58.805Z,10.10
2019-04-30T20:15:29.643Z,10.00
2019-04-30T20:17:58.310Z,10.00
2019-04-30T20:20:30.640Z,9.90
2019-04-30T20:23:00.304Z,9.80
2019-04-30T20:25:29.149Z,9.70
2019-04-30T20:27:58.086Z,9.60
2019-04-30T20:30:29.162Z,9.60
2019-04-30T20:32:59.413Z,9.50
2019-04-30T20:35:28.456Z,9.50
2019-04-30T20:38:15.769Z,9.40
2019-04-30T20:40:57.814Z,9.40
2019-04-30T20:43:18.641Z,9.40
2019-04-30T20:45:47.478Z,9.30
2019-04-30T20:48:16.536Z,9.10
2019-04-30T20:50:47.552Z,9.10
2019-04-30T20:53:16.432Z,9.10
2019-04-30T20:55:45.269Z,9.10
2019-04-30T20:58:14.922Z,9.10
2019-04-30T21:00:44.375Z,9.10
2019-04-30T21:03:13.235Z,9.10
2019-04-30T21:05:41.901Z,9.10
2019-04-30T21:08:10.366Z,9.00
2019-04-30T21:10:39.687Z,8.90
2019-04-30T21:13:10.932Z,8.80
2019-04-30T21:15:39.536Z,8.70
2019-04-30T21:18:09.446Z,8.80
2019-04-30T21:20:38.799Z,8.80
2019-04-30T21:23:09.294Z,8.60
2019-04-30T21:25:38.694Z,8.50
2019-04-30T21:28:09.575Z,8.50
2019-04-30T21:30:37.350Z,8.50
2019-04-30T21:33:18.996Z,8.40
2019-04-30T21:35:58.655Z,8.40
2019-04-30T21:38:29.106Z,8.40
2019-04-30T21:41:00.898Z,8.40
2019-04-30T21:43:27.453Z,8.40
2019-04-30T21:45:55.937Z,8.40
2019-04-30T21:48:24.369Z,8.40
2019-04-30T21:50:52.816Z,8.40
2019-04-30T21:53:21.250Z,8.40
2019-04-30T21:55:49.822Z,8.40
2019-04-30T21:58:20.452Z,8.30
2019-04-30T22:00:54.355Z,8.10
2019-04-30T22:03:22.888Z,8.00
2019-04-30T22:05:51.366Z,7.90
2019-04-30T22:08:19.840Z,7.90
2019-04-30T22:10:48.294Z,7.80
2019-04-30T22:13:18.420Z,7.80
2019-04-30T22:15:47.982Z,7.80
2019-04-30T22:18:16.425Z,7.70
2019-04-30T22:20:44.890Z,7.70
2019-04-30T22:23:13.321Z,7.70
2019-04-30T22:25:41.777Z,7.60
2019-04-30T22:28:10.209Z,7.50
2019-04-30T22:30:38.664Z,7.30
2019-04-30T22:33:08.954Z,7.20
2019-04-30T22:35:55.125Z,7.20
2019-04-30T22:38:29.090Z,7.20
2019-04-30T22:40:58.835Z,7.30
2019-04-30T22:43:27.510Z,7.30
2019-04-30T22:45:59.457Z,7.30
2019-04-30T22:48:28.722Z,7.20
2019-04-30T22:50:57.278Z,7.20
2019-04-30T22:53:25.758Z,7.10
2019-04-30T22:55:54.192Z,7.10
2019-04-30T22:58:22.732Z,7.20
2019-04-30T23:00:52.827Z,7.10
2019-04-30T23:03:22.896Z,6.90
2019-04-30T23:05:51.371Z,6.90
2019-04-30T23:08:19.821Z,6.80
2019-04-30T23:10:48.358Z,6.80
2019-04-30T23:13:16.960Z,6.80
2019-04-30T23:15:45.406Z,6.90
2019-04-30T23:18:13.909Z,6.80
2019-04-30T23:20:42.357Z,6.70
2019-04-30T23:23:10.805Z,6.60
2019-04-30T23:25:39.245Z,6.60
2019-04-30T23:28:07.681Z,6.60
2019-04-30T23:30:36.120Z,6.60
2019-04-30T23:33:04.586Z,6.60
2019-04-30T23:35:33.021Z,6.60
2019-04-30T23:38:01.474Z,6.60
2019-04-30T23:40:33.206Z,6.60
2019-04-30T23:43:01.676Z,6.50
2019-04-30T23:45:30.101Z,6.40
2019-04-30T23:47:58.599Z,6.40
2019-04-30T23:50:27.133Z,6.40
2019-04-30T23:52:55.569Z,6.40
2019-04-30T23:55:24.024Z,6.20
2019-04-30T23:57:52.478Z,6.20
